Time;durP1;ratioP1;P1;durP2;ratioP2;P2;SDS_P1;SDS_P2;PMS_P1;PMS_P2;Temp;Humidity;BMP_temperature;BMP_pressure;BME280_temperature;BME280_humidity;BME280_pressure;Samples;Min_cycle;Max_cycle;Signal;HPM_P1;HPM_P2
2021/01/20 00:02:24;;;;;;;18.37;10.00;;;;;;;2.16;84.74;97526.38;6135116;23;20187;-85
2021/01/20 00:04:50;;;;;;;14.37;8.30;;;;;;;2.06;85.41;97520.53;6131617;23;20187;-85
2021/01/20 00:07:18;;;;;;;14.43;8.80;;;;;;;2.03;85.55;97517.97;6133083;23;20183;-83
2021/01/20 00:09:44;;;;;;;16.70;9.43;;;;;;;1.98;85.60;97519.75;6135360;23;20220;-84
2021/01/20 00:12:10;;;;;;;14.70;9.50;;;;;;;1.95;85.86;97514.69;6136432;23;20275;-85
2021/01/20 00:14:38;;;;;;;15.67;9.73;;;;;;;1.89;85.50;97507.03;6137104;23;20184;-84
2021/01/20 00:17:04;;;;;;;33.77;14.73;;;;;;;1.83;85.88;97512.28;6136964;23;20952;-84
2021/01/20 00:19:30;;;;;;;28.43;12.67;;;;;;;1.82;85.22;97506.28;6135149;23;20190;-82
2021/01/20 00:21:56;;;;;;;23.73;12.60;;;;;;;1.81;85.83;97506.31;6138902;23;20284;-84
2021/01/20 00:24:23;;;;;;;26.57;14.40;;;;;;;1.83;86.40;97507.13;6136547;23;20792;-83
2021/01/20 00:26:49;;;;;;;20.20;11.63;;;;;;;1.84;86.25;97499.41;6139260;23;20263;-84
2021/01/20 00:29:15;;;;;;;20.03;11.90;;;;;;;1.86;86.24;97513.09;6138021;23;20249;-84
2021/01/20 00:31:42;;;;;;;29.37;15.53;;;;;;;1.81;86.20;97514.03;6136681;23;20258;-83
2021/01/20 00:34:08;;;;;;;20.83;11.87;;;;;;;1.82;85.95;97508.00;6138790;23;20215;-83
2021/01/20 00:36:35;;;;;;;21.60;11.33;;;;;;;1.82;85.80;97505.41;6137928;23;20209;-83
2021/01/20 00:39:01;;;;;;;19.43;10.03;;;;;;;1.82;85.96;97510.56;6137073;23;20233;-85
2021/01/20 00:41:27;;;;;;;18.90;9.83;;;;;;;1.84;85.25;97507.13;6136678;23;20310;-84
2021/01/20 00:43:53;;;;;;;13.93;8.80;;;;;;;1.84;85.27;97513.97;6135572;23;20183;-84
2021/01/20 00:46:20;;;;;;;16.13;8.70;;;;;;;1.86;85.28;97514.81;6138271;23;20194;-84
2021/01/20 00:48:47;;;;;;;15.53;9.43;;;;;;;1.88;85.17;97515.66;6137175;23;20188;-83
2021/01/20 00:51:13;;;;;;;11.87;7.30;;;;;;;1.86;85.29;97505.38;6137239;23;20208;-83
2021/01/20 00:53:40;;;;;;;16.50;10.40;;;;;;;1.83;85.09;97512.28;6138396;23;20192;-84
2021/01/20 00:56:06;;;;;;;14.10;8.43;;;;;;;1.82;85.28;97508.88;6139106;23;20219;-83
2021/01/20 00:58:33;;;;;;;13.13;7.50;;;;;;;1.84;85.47;97508.81;6136239;23;20270;-84
2021/01/20 01:00:59;;;;;;;16.93;9.77;;;;;;;1.88;85.37;97505.34;6137141;23;20207;-82
2021/01/20 01:03:26;;;;;;;21.67;10.60;;;;;;;1.84;85.30;97503.66;6135984;23;20191;-82
2021/01/20 01:05:52;;;;;;;15.03;9.13;;;;;;;1.82;85.36;97505.41;6132590;23;20270;-82
2021/01/20 01:08:19;;;;;;;15.60;9.03;;;;;;;1.82;85.34;97505.41;6134642;23;20193;-82
2021/01/20 01:10:45;;;;;;;16.17;9.40;;;;;;;1.76;85.52;97508.09;6137806;23;20211;-82
2021/01/20 01:13:11;;;;;;;14.87;8.97;;;;;;;1.79;85.53;97510.63;6136630;23;20198;-84
2021/01/20 01:15:38;;;;;;;17.90;9.73;;;;;;;1.81;85.47;97506.31;6135781;23;20183;-84
2021/01/20 01:18:04;;;;;;;15.53;9.23;;;;;;;1.76;85.22;97505.53;6136595;23;20572;-83
2021/01/20 01:20:30;;;;;;;16.47;8.33;;;;;;;1.71;85.48;97506.44;6134293;23;20926;-84
2021/01/20 01:22:58;;;;;;;15.07;8.70;;;;;;;1.72;85.58;97499.56;6137977;23;20196;-83
2021/01/20 01:25:25;;;;;;;15.27;8.50;;;;;;;1.75;85.71;97499.53;6138534;23;20717;-82
2021/01/20 01:27:51;;;;;;;17.30;10.03;;;;;;;1.72;85.55;97502.97;6135246;23;20192;-83
2021/01/20 01:30:18;;;;;;;13.97;8.17;;;;;;;1.70;85.84;97497.00;6136664;23;20208;-82
2021/01/20 01:32:45;;;;;;;19.37;10.20;;;;;;;1.72;85.55;97494.44;6139284;23;20187;-84
2021/01/20 01:35:12;;;;;;;14.37;8.50;;;;;;;1.70;85.50;97494.44;6134983;23;20199;-83
2021/01/20 01:37:38;;;;;;;14.83;8.57;;;;;;;1.72;85.42;97497.84;6135892;23;20290;-82
2021/01/20 01:40:07;;;;;;;19.80;9.87;;;;;;;1.72;85.28;97500.41;6137140;23;20207;-82
2021/01/20 01:42:33;;;;;;;16.73;9.50;;;;;;;1.70;84.91;97493.59;6139315;23;20183;-83
2021/01/20 01:45:00;;;;;;;13.80;7.83;;;;;;;1.68;84.89;97498.75;6138495;23;20651;-81
2021/01/20 01:47:26;;;;;;;14.73;8.00;;;;;;;1.65;85.11;97493.66;6137380;23;20249;-83
2021/01/20 01:49:56;;;;;;;11.57;7.17;;;;;;;1.63;85.08;97490.25;6133707;23;20310;-82
2021/01/20 01:52:22;;;;;;;11.33;6.90;;;;;;;1.58;85.39;97486.91;6140324;23;20196;-83
2021/01/20 01:54:52;;;;;;;10.67;6.53;;;;;;;1.58;85.09;97484.34;6137644;23;20194;-83
2021/01/20 01:57:19;;;;;;;8.80;6.10;;;;;;;1.61;85.46;97480.88;6136720;23;20699;-83
2021/01/20 01:59:46;;;;;;;11.20;6.40;;;;;;;1.65;85.21;97480.78;6136305;23;20192;-82
2021/01/20 02:02:12;;;;;;;12.40;6.70;;;;;;;1.63;85.26;97474.81;6110032;23;21042;-83
2021/01/20 02:04:38;;;;;;;9.43;6.03;;;;;;;1.66;85.36;97471.38;6072387;23;20991;-83
2021/01/20 02:07:04;;;;;;;10.20;5.77;;;;;;;1.69;85.12;97474.75;6099693;23;21001;-83
2021/01/20 02:09:31;;;;;;;9.53;5.73;;;;;;;1.61;84.98;97471.44;6106210;23;20192;-83
2021/01/20 02:12:16;;;;;;;12.23;7.53;;;;;;;1.60;84.96;97469.75;6084487;23;20227;-83
2021/01/20 02:14:50;;;;;;;13.70;7.80;;;;;;;1.62;84.83;97468.00;6079806;23;20240;-81
2021/01/20 02:17:21;;;;;;;13.93;8.37;;;;;;;1.62;84.55;97473.16;6104790;23;20253;-83
2021/01/20 02:20:27;;;;;;;11.67;7.40;;;;;;;1.59;84.58;97468.03;6108498;23;20204;-82
2021/01/20 02:22:54;;;;;;;12.47;7.40;;;;;;;1.61;84.80;97471.44;6109499;23;20204;-83
2021/01/20 02:25:36;;;;;;;12.87;8.17;;;;;;;1.60;84.69;97468.88;6098952;23;20196;-85
2021/01/20 02:28:08;;;;;;;15.23;7.90;;;;;;;1.61;84.33;97466.28;6110150;23;20196;-82
2021/01/20 02:30:37;;;;;;;13.90;7.43;;;;;;;1.56;84.35;97462.09;6106297;23;20220;-83
2021/01/20 02:33:04;;;;;;;14.47;8.73;;;;;;;1.52;84.68;97466.41;6107761;23;20184;-84
2021/01/20 02:35:31;;;;;;;15.73;9.40;;;;;;;1.49;84.75;97457.03;6107207;23;20223;-84
2021/01/20 02:37:59;;;;;;;13.90;7.83;;;;;;;1.46;84.53;97461.38;6106934;23;20218;-83
2021/01/20 02:40:26;;;;;;;15.30;8.20;;;;;;;1.41;84.66;97456.28;6104727;23;20226;-84
2021/01/20 02:42:52;;;;;;;18.90;9.87;;;;;;;1.40;84.87;97457.16;6105822;23;20606;-84
2021/01/20 02:45:19;;;;;;;17.03;10.13;;;;;;;1.42;84.91;97449.44;6103233;23;20194;-84
2021/01/20 02:47:47;;;;;;;21.77;11.77;;;;;;;1.43;84.46;97456.25;6107574;23;20184;-84
2021/01/20 02:50:14;;;;;;;17.57;10.33;;;;;;;1.41;84.53;97452.88;6107118;23;20208;-84
2021/01/20 02:52:48;;;;;;;17.57;9.87;;;;;;;1.35;84.33;97454.63;6106675;23;20742;-84
2021/01/20 02:55:16;;;;;;;22.97;11.03;;;;;;;1.35;84.24;97454.63;6105668;23;20196;-84
2021/01/20 02:57:42;;;;;;;21.57;11.83;;;;;;;1.29;84.33;97459.88;6107603;23;20208;-82
2021/01/20 03:00:10;;;;;;;23.77;11.63;;;;;;;1.30;84.08;97455.56;6102546;23;20216;-83
2021/01/20 03:02:38;;;;;;;20.33;10.53;;;;;;;1.27;84.17;97446.19;6108131;23;20349;-82
2021/01/20 03:05:06;;;;;;;18.07;8.80;;;;;;;1.26;84.44;97448.78;6104386;23;20243;-85
2021/01/20 03:07:33;;;;;;;13.87;7.63;;;;;;;1.26;84.28;97457.31;6077312;23;20222;-85
2021/01/20 03:09:59;;;;;;;18.07;8.93;;;;;;;1.24;84.41;97435.94;6077988;23;20205;-83
2021/01/20 03:12:28;;;;;;;16.40;8.87;;;;;;;1.18;84.38;97441.16;6075793;23;20634;-84
2021/01/20 03:14:55;;;;;;;17.00;8.27;;;;;;;1.10;84.26;97437.84;6078877;23;20263;-83
2021/01/20 03:17:21;;;;;;;15.80;8.30;;;;;;;1.10;84.47;97432.69;6075461;23;20224;-83
2021/01/20 03:19:48;;;;;;;15.17;8.80;;;;;;;1.02;84.37;97435.38;6076240;23;20213;-84
2021/01/20 03:22:15;;;;;;;13.60;7.43;;;;;;;1.00;84.72;97434.53;6101442;23;20216;-84
2021/01/20 03:24:41;;;;;;;15.50;8.53;;;;;;;0.90;84.00;97446.63;6105026;23;20192;-82
2021/01/20 03:27:07;;;;;;;12.47;6.90;;;;;;;0.88;84.66;97430.41;6078685;23;20220;-83
2021/01/20 03:29:33;;;;;;;12.77;7.63;;;;;;;0.87;84.58;97433.81;6079168;23;20197;-83
2021/01/20 03:31:59;;;;;;;13.70;8.20;;;;;;;0.80;83.97;97431.34;6098584;23;20294;-82
2021/01/20 03:34:26;;;;;;;13.87;7.03;;;;;;;0.81;84.27;97431.34;6105096;23;20278;-83
2021/01/20 03:36:52;;;;;;;15.60;8.17;;;;;;;0.81;84.72;97425.34;6082540;23;20251;-83
2021/01/20 03:39:19;;;;;;;11.97;6.20;;;;;;;0.82;84.36;97427.03;6074303;23;20193;-83
2021/01/20 03:41:45;;;;;;;11.70;7.20;;;;;;;0.85;84.38;97427.88;6092093;23;20852;-84
2021/01/20 03:44:12;;;;;;;11.10;6.70;;;;;;;0.88;84.54;97417.56;6107333;23;20184;-83
2021/01/20 03:46:38;;;;;;;12.57;6.40;;;;;;;0.94;85.11;97422.63;6061261;23;20216;-83
2021/01/20 03:49:05;;;;;;;10.83;6.07;;;;;;;0.87;84.90;97420.16;6073443;23;20188;-83
2021/01/20 03:51:31;;;;;;;8.07;5.20;;;;;;;0.90;85.54;97423.53;6091692;23;20378;-83
2021/01/20 03:53:58;;;;;;;8.37;5.13;;;;;;;0.99;85.52;97419.13;6106151;23;20188;-84
2021/01/20 03:56:25;;;;;;;10.27;6.57;;;;;;;0.95;84.61;97419.16;6106030;23;20747;-84
2021/01/20 03:58:51;;;;;;;10.37;6.30;;;;;;;0.96;84.90;97415.75;6108018;23;20266;-84
2021/01/20 04:01:17;;;;;;;10.87;6.43;;;;;;;1.03;84.83;97415.66;6108757;23;20224;-82
2021/01/20 04:03:43;;;;;;;11.40;7.00;;;;;;;1.08;84.55;97411.31;6109410;23;20698;-83
2021/01/20 04:06:10;;;;;;;8.30;5.13;;;;;;;1.05;84.64;97403.66;6107878;23;20218;-85
2021/01/20 04:08:36;;;;;;;8.90;5.67;;;;;;;1.13;85.01;97406.97;6110320;23;20598;-82
2021/01/20 04:11:02;;;;;;;14.57;7.53;;;;;;;1.10;84.55;97407.00;6107066;23;20216;-83
2021/01/20 04:13:30;;;;;;;7.43;5.00;;;;;;;1.06;84.50;97400.22;6109024;23;20493;-82
2021/01/20 04:15:56;;;;;;;7.73;5.83;;;;;;;1.11;84.31;97403.59;6106756;23;20227;-83
2021/01/20 04:18:22;;;;;;;10.23;7.03;;;;;;;1.08;84.44;97412.16;6105416;23;20184;-83
2021/01/20 04:20:48;;;;;;;8.47;5.80;;;;;;;1.06;84.49;97405.34;6102459;23;20235;-84
2021/01/20 04:23:15;;;;;;;9.63;6.07;;;;;;;1.07;84.48;97407.06;6110599;23;20191;-83
2021/01/20 04:25:41;;;;;;;9.17;5.30;;;;;;;1.11;85.37;97403.59;6104070;23;20232;-83
2021/01/20 04:28:07;;;;;;;8.83;4.70;;;;;;;1.16;85.14;97406.94;6108309;23;20196;-85
2021/01/20 04:30:34;;;;;;;7.00;4.90;;;;;;;1.22;85.34;97401.72;6106552;23;20224;-84
2021/01/20 04:33:01;;;;;;;10.63;6.03;;;;;;;1.18;84.25;97394.94;6108713;23;20278;-84
2021/01/20 04:35:27;;;;;;;8.67;4.87;;;;;;;1.14;84.28;97395.84;6104872;23;20226;-82
2021/01/20 04:37:53;;;;;;;8.53;4.63;;;;;;;1.18;84.52;97394.06;6109936;23;20232;-82
2021/01/20 04:40:20;;;;;;;7.70;5.00;;;;;;;1.21;84.63;97394.88;6104489;23;20283;-82
2021/01/20 04:42:46;;;;;;;6.93;4.50;;;;;;;1.22;84.71;97398.31;6110407;23;20534;-84
2021/01/20 04:45:13;;;;;;;7.47;4.90;;;;;;;1.22;84.54;97393.16;6104609;23;20271;-83
2021/01/20 04:47:40;;;;;;;9.63;5.33;;;;;;;1.22;84.84;97391.44;6110102;23;20190;-82
2021/01/20 04:50:07;;;;;;;8.20;4.40;;;;;;;1.21;84.90;97394.03;6106864;23;20207;-83
2021/01/20 04:52:34;;;;;;;7.60;4.63;;;;;;;1.17;84.75;97388.09;6108272;23;20196;-83
2021/01/20 04:55:01;;;;;;;7.97;5.47;;;;;;;1.16;84.99;97391.53;6109013;23;20188;-82
2021/01/20 04:57:28;;;;;;;8.03;4.90;;;;;;;1.13;84.49;97391.56;6107663;23;20749;-82
2021/01/20 04:59:55;;;;;;;8.57;4.43;;;;;;;1.15;84.50;97390.66;6108659;23;20212;-82
2021/01/20 05:02:23;;;;;;;8.20;4.70;;;;;;;1.14;84.41;97383.84;6104854;23;20220;-83
2021/01/20 05:04:51;;;;;;;6.70;4.67;;;;;;;1.08;84.64;97388.22;6106888;23;20267;-83
2021/01/20 05:07:18;;;;;;;9.13;4.67;;;;;;;1.09;84.51;97395.06;6104876;23;20324;-83
2021/01/20 05:09:45;;;;;;;8.13;4.50;;;;;;;1.11;84.40;97396.72;6105950;23;20295;-83
2021/01/20 05:12:38;;;;;;;7.53;4.50;;;;;;;1.09;84.64;97392.50;6101675;23;20281;-82
2021/01/20 05:15:06;;;;;;;11.67;4.90;;;;;;;1.16;84.68;97391.53;6110350;23;20220;-84
2021/01/20 05:17:32;;;;;;;6.37;4.53;;;;;;;1.13;84.74;97391.56;6078889;23;20296;-85
2021/01/20 05:20:00;;;;;;;40.43;27.27;;;;;;;1.13;84.98;97386.44;6079297;23;20216;-84
2021/01/20 05:22:26;;;;;;;8.77;5.20;;;;;;;1.01;83.92;97387.44;6107640;23;20286;-84
2021/01/20 05:24:59;;;;;;;17.23;10.07;;;;;;;0.91;83.39;97381.56;6107567;23;20188;-82
2021/01/20 05:27:29;;;;;;;11.33;6.03;;;;;;;0.94;84.40;97384.09;6077414;23;20297;-82
2021/01/20 05:30:04;;;;;;;24.30;13.90;;;;;;;0.85;83.39;97386.78;6079229;23;20279;-82
2021/01/20 05:32:30;;;;;;;14.63;9.30;;;;;;;0.86;84.00;97383.34;6108703;23;20286;-82
2021/01/20 05:35:03;;;;;;;8.83;5.23;;;;;;;0.89;84.19;97391.00;6107626;23;20276;-83
2021/01/20 05:37:29;;;;;;;12.43;7.50;;;;;;;0.89;84.51;97383.31;6078806;23;20307;-83
2021/01/20 05:40:06;;;;;;;7.77;4.70;;;;;;;0.86;84.77;97383.34;6076776;23;20268;-83
2021/01/20 05:42:43;;;;;;;12.43;7.00;;;;;;;0.92;84.51;97380.72;6078030;23;20548;-84
2021/01/20 05:45:10;;;;;;;7.93;5.03;;;;;;;0.94;84.82;97376.41;6079342;23;20197;-84
2021/01/20 05:47:36;;;;;;;8.50;5.63;;;;;;;1.02;84.66;97383.16;6103721;23;20194;-83
2021/01/20 05:50:05;;;;;;;8.90;6.70;;;;;;;1.05;84.26;97383.09;6106956;23;20204;-83
2021/01/20 05:52:32;;;;;;;8.03;5.20;;;;;;;1.07;84.55;97377.09;6107666;23;20192;-84
2021/01/20 05:54:58;;;;;;;10.03;6.97;;;;;;;1.14;84.87;97378.72;6106082;23;20708;-83
2021/01/20 05:57:28;;;;;;;11.77;7.20;;;;;;;1.07;83.92;97376.25;6103042;23;20970;-84
2021/01/20 05:59:54;;;;;;;8.60;5.80;;;;;;;1.04;84.18;97376.28;6110273;23;20216;-82
2021/01/20 06:02:21;;;;;;;12.93;7.13;;;;;;;0.98;83.80;97376.38;6100873;23;21131;-83
2021/01/20 06:04:48;;;;;;;7.83;5.20;;;;;;;0.92;83.62;97374.69;6109558;23;20243;-83
2021/01/20 06:07:16;;;;;;;7.60;4.77;;;;;;;0.90;83.90;97369.63;6109690;23;20227;-82
2021/01/20 06:09:43;;;;;;;7.17;5.30;;;;;;;0.94;84.47;97368.69;6112634;23;20196;-83
2021/01/20 06:12:10;;;;;;;7.17;4.87;;;;;;;0.96;83.97;97379.78;6108950;23;20247;-83
2021/01/20 06:14:37;;;;;;;8.30;5.87;;;;;;;0.97;84.75;97370.38;6111696;23;20184;-83
2021/01/20 06:17:11;;;;;;;9.07;5.20;;;;;;;0.98;84.71;97368.66;6107449;23;20230;-84
2021/01/20 06:19:38;;;;;;;8.47;5.20;;;;;;;0.98;84.65;97366.09;6112687;23;20491;-83
2021/01/20 06:22:05;;;;;;;5.63;4.37;;;;;;;0.96;84.98;97366.94;6107190;23;20258;-82
2021/01/20 06:24:41;;;;;;;8.00;4.30;;;;;;;0.95;84.19;97362.69;6109176;23;20188;-83
2021/01/20 06:27:12;;;;;;;5.80;4.33;;;;;;;0.95;84.02;97357.53;6109066;23;20229;-84
2021/01/20 06:29:43;;;;;;;6.30;4.10;;;;;;;0.92;85.01;97362.72;6111599;23;20985;-84
2021/01/20 06:32:10;;;;;;;6.47;4.90;;;;;;;0.95;85.02;97365.25;6108502;23;20303;-84
2021/01/20 06:34:36;;;;;;;5.50;4.13;;;;;;;0.98;84.70;97366.09;6110594;23;20656;-84
2021/01/20 06:37:02;;;;;;;6.57;4.03;;;;;;;0.98;84.59;97355.81;6109569;23;20223;-85
2021/01/20 06:39:34;;;;;;;6.60;4.73;;;;;;;0.88;84.13;97361.09;6109612;23;20266;-83
2021/01/20 06:42:01;;;;;;;5.77;4.17;;;;;;;0.91;84.16;97353.31;6104830;23;20223;-84
2021/01/20 06:44:28;;;;;;;6.30;4.27;;;;;;;0.94;83.78;97353.28;6110215;23;20194;-84
2021/01/20 06:47:01;;;;;;;7.23;4.57;;;;;;;0.94;83.68;97361.00;6110236;23;20236;-83
2021/01/20 06:49:29;;;;;;;6.40;4.23;;;;;;;1.02;83.99;97367.75;6112098;23;20218;-83
2021/01/20 06:52:09;;;;;;;4.70;3.50;;;;;;;0.91;83.23;97365.31;6108592;23;20290;-83
2021/01/20 06:54:41;;;;;;;5.77;3.90;;;;;;;0.91;83.49;97362.75;6110408;23;20184;-83
2021/01/20 06:57:32;;;;;;;7.77;4.93;;;;;;;0.93;83.43;97364.41;6108075;23;20811;-83
2021/01/20 07:00:12;;;;;;;8.43;4.50;;;;;;;0.96;83.37;97368.69;6112326;23;20204;-84
2021/01/20 07:02:57;;;;;;;6.47;4.20;;;;;;;0.98;83.28;97371.22;6079678;23;20283;-83
2021/01/20 07:05:32;;;;;;;11.83;7.23;;;;;;;0.95;83.59;97367.81;6084569;23;20276;-83
2021/01/20 07:07:58;;;;;;;13.07;8.17;;;;;;;0.96;83.34;97369.53;6111001;23;20188;-85
2021/01/20 07:10:26;;;;;;;9.87;6.50;;;;;;;0.93;83.66;97371.28;6106680;23;20223;-84
2021/01/20 07:13:16;;;;;;;9.53;6.47;;;;;;;0.95;83.69;97364.41;6110446;23;20263;-83
2021/01/20 07:15:47;;;;;;;11.10;6.77;;;;;;;0.99;83.46;97366.06;6108545;23;20227;-83
2021/01/20 07:18:14;;;;;;;9.17;5.57;;;;;;;1.03;83.29;97360.03;6110893;23;20287;-83
2021/01/20 07:20:41;;;;;;;11.00;5.60;;;;;;;1.07;83.33;97360.84;6109778;23;20220;-84
2021/01/20 07:23:08;;;;;;;12.80;6.83;;;;;;;1.10;82.96;97356.50;6110477;23;20242;-83
2021/01/20 07:25:35;;;;;;;14.07;7.20;;;;;;;1.05;82.70;97353.16;6109152;23;20287;-85
2021/01/20 07:28:01;;;;;;;14.10;8.80;;;;;;;1.05;82.95;97354.84;6111607;23;20682;-85
2021/01/20 07:30:28;;;;;;;16.20;9.57;;;;;;;1.01;82.82;97366.91;6105226;23;20302;-83
2021/01/20 07:32:55;;;;;;;16.23;10.50;;;;;;;0.99;82.58;97360.06;6111896;23;20274;-84
2021/01/20 07:35:23;;;;;;;15.80;10.93;;;;;;;0.98;82.82;97361.81;6110104;23;20192;-82
2021/01/20 07:38:02;;;;;;;13.77;9.40;;;;;;;1.01;82.48;97360.91;6111953;23;20227;-83
2021/01/20 07:40:29;;;;;;;11.03;6.40;;;;;;;1.02;82.89;97363.44;6107521;23;20294;-83
2021/01/20 07:42:57;;;;;;;9.57;6.53;;;;;;;1.09;83.13;97365.06;6112748;23;20295;-82
2021/01/20 07:45:34;;;;;;;8.13;5.60;;;;;;;1.14;82.95;97362.47;6106163;23;20263;-83
2021/01/20 07:48:01;;;;;;;12.63;8.27;;;;;;;1.18;82.55;97358.97;6112730;23;20675;-84
2021/01/20 07:50:38;;;;;;;14.37;8.97;;;;;;;1.18;82.23;97356.41;6110122;23;20231;-83
2021/01/20 07:53:05;;;;;;;9.30;7.03;;;;;;;1.17;82.98;97349.56;6110489;23;20710;-83
2021/01/20 07:55:31;;;;;;;10.23;8.17;;;;;;;1.20;82.77;97354.66;6110222;23;20226;-82
2021/01/20 07:58:00;;;;;;;14.83;10.17;;;;;;;1.17;82.91;97352.13;6108729;23;20212;-84
2021/01/20 08:00:26;;;;;;;17.97;11.50;;;;;;;1.21;82.82;97356.34;6108642;23;20299;-82
2021/01/20 08:02:53;;;;;;;15.57;10.37;;;;;;;1.26;82.51;97351.16;6111423;23;20501;-82
2021/01/20 08:05:20;;;;;;;16.63;12.10;;;;;;;1.31;82.70;97349.38;6108687;23;20652;-82
2021/01/20 08:07:46;;;;;;;18.20;10.30;;;;;;;1.31;82.60;97354.50;6110277;23;20220;-83
2021/01/20 08:10:19;;;;;;;14.00;9.37;;;;;;;1.36;82.67;97357.88;6106759;23;20216;-84
2021/01/20 08:12:46;;;;;;;15.50;9.60;;;;;;;1.34;82.28;97349.31;6112366;23;20271;-84
2021/01/20 08:15:15;;;;;;;12.47;8.13;;;;;;;1.41;82.30;97355.22;6103868;23;20192;-83
2021/01/20 08:17:42;;;;;;;14.53;8.20;;;;;;;1.45;82.34;97357.72;6111970;23;20283;-84
2021/01/20 08:20:10;;;;;;;11.33;6.83;;;;;;;1.52;82.49;97364.44;6108482;23;20240;-85
2021/01/20 08:22:39;;;;;;;13.47;7.23;;;;;;;1.56;82.28;97365.25;6110353;23;20192;-84
2021/01/20 08:25:08;;;;;;;18.20;10.37;;;;;;;1.55;82.29;97363.56;6111481;23;20278;-83
2021/01/20 08:27:37;;;;;;;13.53;7.90;;;;;;;1.60;82.24;97356.66;6110891;23;20201;-84
2021/01/20 08:30:06;;;;;;;14.70;7.73;;;;;;;1.69;82.21;97358.19;6107283;23;20596;-83
2021/01/20 08:32:33;;;;;;;12.97;7.93;;;;;;;1.74;82.12;97353.84;6082293;23;20260;-84
2021/01/20 08:35:00;;;;;;;15.50;9.70;;;;;;;1.79;82.07;97356.34;6080695;23;20193;-85
2021/01/20 08:37:34;;;;;;;21.73;14.07;;;;;;;1.73;81.35;97363.28;6103628;23;20227;-84
2021/01/20 08:40:01;;;;;;;15.97;9.97;;;;;;;1.78;82.18;97354.63;6113269;23;20251;-83
2021/01/20 08:42:29;;;;;;;16.27;9.60;;;;;;;1.83;81.89;97350.28;6083247;23;20295;-83
2021/01/20 08:45:05;;;;;;;14.43;9.77;;;;;;;1.87;82.18;97354.47;6084690;23;20195;-82
2021/01/20 08:47:31;;;;;;;16.57;11.10;;;;;;;1.92;82.13;97352.69;6110817;23;20315;-84
2021/01/20 08:49:58;;;;;;;15.77;8.60;;;;;;;1.99;82.12;97349.16;6109540;23;20295;-84
2021/01/20 08:52:24;;;;;;;13.13;8.77;;;;;;;2.04;82.02;97349.91;6106723;23;20226;-84
2021/01/20 08:54:51;;;;;;;7.70;5.03;;;;;;;2.11;82.01;97353.22;6110182;23;20506;-83
2021/01/20 08:57:18;;;;;;;12.03;8.27;;;;;;;2.09;82.15;97349.81;6110906;23;20215;-84
2021/01/20 08:59:51;;;;;;;13.93;9.93;;;;;;;2.12;82.03;97355.75;6111133;23;20278;-83
2021/01/20 09:02:18;;;;;;;11.40;8.23;;;;;;;2.19;82.33;97350.50;6109136;23;20302;-83
2021/01/20 09:04:47;;;;;;;12.27;8.30;;;;;;;2.24;82.17;97353.84;6112265;23;20633;-83
2021/01/20 09:07:14;;;;;;;10.13;7.90;;;;;;;2.31;82.45;97355.44;6106008;23;20315;-83
2021/01/20 09:09:41;;;;;;;12.97;9.13;;;;;;;2.41;82.51;97354.41;6111266;23;20287;-82
2021/01/20 09:12:07;;;;;;;9.67;7.50;;;;;;;2.51;82.50;97363.63;6106971;23;20303;-83
2021/01/20 09:14:34;;;;;;;9.40;6.17;;;;;;;2.60;82.63;97351.47;6112145;23;20236;-84
2021/01/20 09:17:00;;;;;;;6.17;4.17;;;;;;;2.68;82.74;97347.88;6107844;23;20323;-83
2021/01/20 09:19:27;;;;;;;6.33;3.60;;;;;;;2.79;82.72;97357.09;6108979;23;20262;-84
2021/01/20 09:21:53;;;;;;;6.67;5.30;;;;;;;2.85;82.60;97349.25;6107195;23;20238;-84
2021/01/20 09:24:20;;;;;;;6.77;4.97;;;;;;;2.94;82.55;97355.94;6109335;23;20188;-84
2021/01/20 09:26:46;;;;;;;15.37;9.77;;;;;;;2.95;82.58;97352.47;6105293;23;20686;-84
2021/01/20 09:29:13;;;;;;;9.37;6.00;;;;;;;2.97;82.16;97350.72;6112320;23;20714;-84
2021/01/20 09:31:39;;;;;;;9.70;6.20;;;;;;;3.06;82.66;97340.22;6109746;23;20322;-85
2021/01/20 09:34:05;;;;;;;6.93;5.00;;;;;;;3.15;82.62;97340.00;6111846;23;20453;-84
2021/01/20 09:36:32;;;;;;;8.77;6.33;;;;;;;3.24;82.49;97337.22;6106950;23;20224;-83
2021/01/20 09:38:59;;;;;;;7.00;4.77;;;;;;;3.33;82.21;97346.50;6105267;23;20271;-84
2021/01/20 09:41:26;;;;;;;7.67;4.93;;;;;;;3.44;82.20;97341.09;6107960;23;20246;-83
2021/01/20 09:43:53;;;;;;;5.30;3.80;;;;;;;3.54;82.56;97340.00;6112003;23;20303;-82
2021/01/20 09:46:20;;;;;;;7.40;5.73;;;;;;;3.62;82.26;97332.94;6107687;23;20251;-84
2021/01/20 09:48:46;;;;;;;9.20;5.80;;;;;;;3.73;81.88;97337.84;6109773;23;20215;-85
2021/01/20 09:51:12;;;;;;;7.60;5.30;;;;;;;3.84;81.84;97332.38;6106894;23;20232;-84
2021/01/20 09:53:39;;;;;;;5.67;4.77;;;;;;;3.96;81.88;97328.66;6110359;23;20194;-83
2021/01/20 09:56:06;;;;;;;5.53;3.50;;;;;;;4.09;82.11;97324.03;6107382;23;20315;-83
2021/01/20 09:58:37;;;;;;;4.07;2.90;;;;;;;4.22;81.76;97317.66;6107315;23;20243;-84
2021/01/20 10:01:04;;;;;;;4.60;2.93;;;;;;;4.37;81.29;97309.50;6111840;23;20243;-83
2021/01/20 10:03:30;;;;;;;4.13;2.10;;;;;;;4.49;80.26;97308.34;6111748;23;20267;-84
2021/01/20 10:05:56;;;;;;;6.50;4.23;;;;;;;4.60;81.02;97300.28;6110128;23;20610;-83
2021/01/20 10:08:23;;;;;;;5.97;2.43;;;;;;;4.69;80.30;97300.03;6104957;23;20212;-85
2021/01/20 10:10:49;;;;;;;3.10;2.47;;;;;;;4.82;80.42;97296.19;6108003;23;20332;-83
2021/01/20 10:13:16;;;;;;;3.30;2.03;;;;;;;4.93;79.87;97297.63;6111278;23;20267;-83
2021/01/20 10:15:43;;;;;;;2.30;1.70;;;;;;;5.06;79.36;97283.44;6108796;23;20720;-85
2021/01/20 10:18:09;;;;;;;3.47;2.17;;;;;;;5.12;79.50;97280.66;6107247;23;20711;-84
2021/01/20 10:20:36;;;;;;;2.93;2.27;;;;;;;5.26;79.61;97284.56;6111008;23;20236;-84
2021/01/20 10:23:02;;;;;;;3.03;2.40;;;;;;;5.35;78.94;97279.13;6109374;23;20180;-84
2021/01/20 10:25:32;;;;;;;4.37;2.27;;;;;;;5.44;78.42;97276.22;6107941;23;20226;-82
2021/01/20 10:27:59;;;;;;;5.20;2.40;;;;;;;5.53;78.18;97265.59;6113360;23;20517;-83
2021/01/20 10:30:26;;;;;;;5.13;2.27;;;;;;;5.68;78.38;97260.78;6108031;23;20219;-83
2021/01/20 10:32:54;;;;;;;3.00;2.33;;;;;;;5.80;78.10;97257.78;6112647;23;20375;-85
2021/01/20 10:35:21;;;;;;;3.93;2.10;;;;;;;5.88;77.25;97253.22;6105976;23;20207;-82
2021/01/20 10:37:47;;;;;;;4.63;2.57;;;;;;;5.98;77.65;97244.25;6111252;23;20900;-84
2021/01/20 10:40:14;;;;;;;2.53;1.80;;;;;;;6.11;77.24;97234.31;6109375;23;20208;-84
2021/01/20 10:42:40;;;;;;;1.90;1.50;;;;;;;6.27;76.36;97239.81;6110789;23;20191;-82
2021/01/20 10:45:07;;;;;;;3.63;1.70;;;;;;;6.45;76.70;97227.06;6110024;23;20215;-85
2021/01/20 10:47:34;;;;;;;3.43;1.90;;;;;;;6.64;76.70;97222.91;6110449;23;20665;-83
2021/01/20 10:50:02;;;;;;;3.13;1.90;;;;;;;6.80;76.08;97217.13;6110136;23;20291;-84
2021/01/20 10:52:29;;;;;;;3.47;1.63;;;;;;;6.93;75.24;97218.38;6108052;23;20282;-83
2021/01/20 10:54:56;;;;;;;2.27;1.60;;;;;;;7.04;75.42;97213.59;6110296;23;20239;-84
2021/01/20 10:57:22;;;;;;;1.63;1.23;;;;;;;7.19;75.70;97213.91;6080789;23;20254;-85
2021/01/20 10:59:48;;;;;;;3.47;1.80;;;;;;;7.29;74.76;97204.81;6081511;23;20195;-83
2021/01/20 11:02:15;;;;;;;2.50;1.73;;;;;;;7.39;75.24;97203.56;6106558;23;20307;-84
2021/01/20 11:04:41;;;;;;;2.33;1.47;;;;;;;7.51;74.03;97200.44;6110896;23;20188;-84
2021/01/20 11:07:09;;;;;;;2.22;1.63;;;;;;;7.62;73.32;97192.22;6081772;23;20251;-84
2021/01/20 11:09:35;;;;;;;1.60;1.30;;;;;;;7.71;73.05;97191.00;6078054;23;20189;-83
2021/01/20 11:12:02;;;;;;;1.63;1.30;;;;;;;7.82;72.93;97188.78;6104866;23;20239;-84
2021/01/20 11:14:29;;;;;;;3.60;1.48;;;;;;;7.94;73.51;97186.56;6110235;23;20219;-83
2021/01/20 11:16:55;;;;;;;3.53;1.37;;;;;;;8.03;72.09;97183.56;6084299;23;20225;-83
2021/01/20 11:19:22;;;;;;;3.13;1.40;;;;;;;8.13;71.78;97186.63;6081351;23;20287;-83
2021/01/20 11:21:49;;;;;;;2.00;1.40;;;;;;;8.25;71.86;97186.03;6100982;23;20223;-84
2021/01/20 11:24:18;;;;;;;1.95;1.20;;;;;;;8.36;71.62;97173.41;6110939;23;20195;-84
2021/01/20 11:26:45;;;;;;;2.67;1.60;;;;;;;8.47;71.41;97166.03;6088576;23;20231;-83
2021/01/20 11:29:11;;;;;;;2.95;1.30;;;;;;;8.59;71.03;97175.00;6080832;23;20192;-82
2021/01/20 11:31:38;;;;;;;1.85;1.40;;;;;;;8.76;71.11;97166.41;6098792;23;20226;-83
2021/01/20 11:34:04;;;;;;;2.22;1.30;;;;;;;8.94;72.10;97164.69;6111820;23;20192;-84
2021/01/20 11:36:30;;;;;;;3.13;1.50;;;;;;;9.18;72.81;97162.66;6091778;23;20707;-84
2021/01/20 11:38:57;;;;;;;3.65;1.38;;;;;;;9.51;71.33;97154.13;6080874;23;20193;-83
2021/01/20 11:41:24;;;;;;;1.80;1.27;;;;;;;9.98;70.05;97153.47;6091526;23;20234;-84